Time;durP1;ratioP1;P1;durP2;ratioP2;P2;SDS_P1;SDS_P2;PMS_P1;PMS_P2;Temp;Humidity;BMP_temperature;BMP_pressure;BME280_temperature;BME280_humidity;BME280_pressure;Samples;Min_cycle;Max_cycle;Signal;HPM_P1;HPM_P2
2022/03/31 00:01:21;;;;;;;0.38;0.28;;;;;;;23.96;51.26;101004.59;5053280;28;20033;-66
2022/03/31 00:03:47;;;;;;;0.32;0.10;;;;;;;23.99;51.21;101001.44;5053292;28;20066;-66
2022/03/31 00:06:12;;;;;;;1.10;0.10;;;;;;;23.98;51.67;100997.00;5053356;28;20025;-66
2022/03/31 00:08:37;;;;;;;0.32;0.10;;;;;;;23.99;51.08;101004.19;5053326;28;20028;-66
2022/03/31 00:11:03;;;;;;;0.43;0.17;;;;;;;23.97;51.08;100995.31;5040626;28;20029;-65
2022/03/31 00:13:29;;;;;;;0.20;0.00;;;;;;;23.96;51.68;100999.09;5033160;28;20025;-65
2022/03/31 00:15:57;;;;;;;0.80;0.40;;;;;;;23.95;52.07;100998.25;5033258;28;20025;-66
2022/03/31 00:18:24;;;;;;;0.52;0.35;;;;;;;23.95;51.54;101000.16;5033151;28;20403;-65
2022/03/31 00:20:49;;;;;;;0.65;0.10;;;;;;;23.96;52.02;101004.59;5033267;28;20022;-67
2022/03/31 00:23:15;;;;;;;0.35;0.10;;;;;;;23.96;51.68;100999.09;5033187;28;20033;-65
2022/03/31 00:25:40;;;;;;;0.55;0.10;;;;;;;23.93;51.15;101005.00;5032939;28;20461;-65
2022/03/31 00:28:06;;;;;;;0.17;0.03;;;;;;;23.97;50.95;101000.78;5033164;28;20032;-66
2022/03/31 00:30:32;;;;;;;0.40;0.10;;;;;;;23.93;51.26;101005.84;5032913;28;20040;-66
2022/03/31 00:32:58;;;;;;;1.20;0.13;;;;;;;23.93;50.86;101005.84;5033048;28;20029;-66
2022/03/31 00:35:24;;;;;;;1.23;0.00;;;;;;;23.96;51.06;101010.09;5032726;28;20036;-65
2022/03/31 00:37:49;;;;;;;0.63;0.05;;;;;;;23.94;50.87;101012.19;5032022;28;20101;-65
2022/03/31 00:40:19;;;;;;;0.20;0.10;;;;;;;23.92;50.84;101008.81;5040456;28;20151;-66
2022/03/31 00:42:49;;;;;;;0.40;0.10;;;;;;;23.93;51.69;101011.34;5052813;28;20472;-66
2022/03/31 00:45:21;;;;;;;0.82;0.10;;;;;;;23.93;50.50;101011.34;5052643;28;20032;-67
2022/03/31 00:47:47;;;;;;;0.30;0.13;;;;;;;23.92;50.38;101011.56;5052310;28;20484;-65
2022/03/31 00:50:13;;;;;;;0.40;0.10;;;;;;;23.93;51.81;101010.50;5052592;28;20139;-66
2022/03/31 00:52:39;;;;;;;0.10;0.08;;;;;;;23.91;50.59;101010.72;5052572;28;20027;-66
2022/03/31 00:55:06;;;;;;;0.30;0.20;;;;;;;23.92;52.34;101008.81;5052665;28;20024;-66
2022/03/31 00:57:33;;;;;;;0.00;0.00;;;;;;;23.92;51.76;101014.31;5052241;28;20051;-66
2022/03/31 00:59:59;;;;;;;0.43;0.25;;;;;;;23.92;51.34;101008.81;5052580;28;20353;-65
2022/03/31 01:02:30;;;;;;;0.60;0.10;;;;;;;23.87;50.61;101011.34;5052209;28;20029;-66
2022/03/31 01:04:58;;;;;;;0.25;0.15;;;;;;;23.91;51.37;101007.97;5050548;28;20029;-67
2022/03/31 01:07:26;;;;;;;0.20;0.08;;;;;;;23.91;51.20;101015.34;5052168;28;20032;-65
2022/03/31 01:09:52;;;;;;;0.63;0.25;;;;;;;23.89;51.26;101011.97;5052309;28;20104;-65
2022/03/31 01:12:17;;;;;;;0.70;0.10;;;;;;;23.90;50.95;101013.66;5052166;28;20108;-65
2022/03/31 01:14:42;;;;;;;0.93;0.10;;;;;;;23.89;50.86;101006.47;5052334;28;20021;-66
2022/03/31 01:17:08;;;;;;;0.38;0.20;;;;;;;23.87;52.07;101012.19;5052289;28;20071;-67
2022/03/31 01:19:33;;;;;;;0.17;0.17;;;;;;;23.85;52.02;101014.28;5052381;28;20078;-65
2022/03/31 01:21:58;;;;;;;0.20;0.10;;;;;;;23.84;51.45;101009.81;5052142;28;20028;-65
2022/03/31 01:24:24;;;;;;;0.63;0.13;;;;;;;23.87;52.10;101011.34;5051973;28;20031;-65
2022/03/31 01:26:49;;;;;;;0.25;0.15;;;;;;;23.88;50.60;101013.03;5052878;28;20526;-66
2022/03/31 01:29:14;;;;;;;0.45;0.10;;;;;;;23.88;50.73;101013.03;5052082;28;20354;-65
2022/03/31 01:31:40;;;;;;;0.63;0.20;;;;;;;23.86;51.02;100999.50;5051990;28;20035;-65
2022/03/31 01:34:07;;;;;;;0.73;0.50;;;;;;;23.87;50.61;100994.84;5043607;28;20425;-65
2022/03/31 01:36:32;;;;;;;0.63;0.15;;;;;;;23.85;51.00;100996.94;5032076;28;20104;-65
2022/03/31 01:38:58;;;;;;;0.47;0.10;;;;;;;23.86;51.29;100998.66;5032140;28;20441;-66
2022/03/31 01:41:23;;;;;;;0.35;0.20;;;;;;;23.87;51.07;100989.38;5031964;28;20433;-67
2022/03/31 01:43:49;;;;;;;0.20;0.10;;;;;;;23.84;51.27;101000.72;5032052;28;20489;-65
2022/03/31 01:46:14;;;;;;;0.38;0.10;;;;;;;23.86;50.69;100999.50;5031997;28;20453;-65
2022/03/31 01:48:40;;;;;;;0.08;0.00;;;;;;;23.84;51.31;100987.84;5034157;28;20021;-65
2022/03/31 01:51:05;;;;;;;0.28;0.20;;;;;;;23.81;51.35;100984.66;5036084;28;20025;-65
2022/03/31 01:53:35;;;;;;;0.10;0.10;;;;;;;23.79;51.20;100986.78;5035884;28;20037;-66
2022/03/31 01:56:01;;;;;;;1.45;0.10;;;;;;;23.81;50.60;100988.25;5036108;28;20378;-65
2022/03/31 01:58:26;;;;;;;0.25;0.03;;;;;;;23.83;51.22;100983.41;5035520;28;20064;-65
2022/03/31 02:00:52;;;;;;;0.63;0.10;;;;;;;23.81;51.31;100985.53;5035788;28;20067;-66
2022/03/31 02:03:17;;;;;;;0.28;0.20;;;;;;;23.80;51.11;100992.06;5039165;28;20479;-65
2022/03/31 02:05:43;;;;;;;0.03;0.00;;;;;;;23.81;51.13;100987.41;5055604;28;20033;-67
2022/03/31 02:08:08;;;;;;;0.43;0.20;;;;;;;23.81;50.52;100984.66;5055650;28;20033;-65
2022/03/31 02:10:35;;;;;;;0.25;0.10;;;;;;;23.79;50.29;100986.78;5055537;28;20066;-65
2022/03/31 02:13:01;;;;;;;0.15;0.15;;;;;;;23.82;50.88;100983.63;5055357;28;20116;-66
2022/03/31 02:15:29;;;;;;;0.30;0.25;;;;;;;23.79;50.85;100982.13;5055338;28;20147;-65
2022/03/31 02:17:54;;;;;;;0.70;0.10;;;;;;;23.78;50.63;100985.09;5055406;28;20558;-67
2022/03/31 02:20:20;;;;;;;1.35;0.10;;;;;;;23.81;50.71;100987.41;5055191;28;20029;-65
2022/03/31 02:22:45;;;;;;;0.43;0.10;;;;;;;23.79;51.76;100981.28;5055462;28;20112;-65
2022/03/31 02:25:11;;;;;;;0.30;0.00;;;;;;;23.77;50.16;100983.41;5040592;28;20032;-66
2022/03/31 02:27:37;;;;;;;0.35;0.00;;;;;;;23.78;50.38;100982.34;5035520;28;20468;-66
2022/03/31 02:30:04;;;;;;;1.30;0.10;;;;;;;23.79;50.13;100981.28;5035597;28;20022;-67
2022/03/31 02:32:29;;;;;;;0.40;0.10;;;;;;;23.78;51.37;100982.34;5035401;28;20415;-65
2022/03/31 02:34:55;;;;;;;0.22;0.10;;;;;;;23.80;50.89;100982.97;5035312;28;20104;-65
2022/03/31 02:37:20;;;;;;;1.08;0.10;;;;;;;23.79;51.31;100986.78;5035026;28;20021;-66
2022/03/31 02:39:45;;;;;;;0.30;0.10;;;;;;;23.77;50.50;100988.88;5034977;28;20083;-65
2022/03/31 02:42:11;;;;;;;0.10;0.10;;;;;;;23.80;50.63;100977.50;5035091;28;20032;-67
2022/03/31 02:44:37;;;;;;;0.10;0.10;;;;;;;23.78;49.70;100979.59;5035011;28;20033;-65
2022/03/31 02:47:02;;;;;;;0.30;0.08;;;;;;;23.76;51.39;100981.69;5035078;28;20047;-65
2022/03/31 02:49:28;;;;;;;0.20;0.00;;;;;;;23.76;50.44;100987.19;5034787;28;20457;-66
2022/03/31 02:51:53;;;;;;;0.15;0.08;;;;;;;23.75;52.00;100985.50;5034864;28;20065;-66
2022/03/31 02:57:02;;;;;;;0.63;0.20;;;;;;;23.78;50.13;100990.56;5054720;28;20514;-65
2022/03/31 02:59:30;;;;;;;0.88;0.10;;;;;;;23.75;50.33;100985.50;5053448;28;20305;-66
2022/03/31 03:01:55;;;;;;;0.35;0.10;;;;;;;23.76;50.28;100981.69;5054612;28;20075;-66
2022/03/31 03:04:21;;;;;;;0.22;0.15;;;;;;;23.73;49.94;100990.34;5054476;28;20037;-65
2022/03/31 03:06:47;;;;;;;0.30;0.30;;;;;;;23.76;50.46;100987.19;5054706;28;20032;-67
2022/03/31 03:09:12;;;;;;;0.20;0.20;;;;;;;23.73;50.68;100987.59;5054773;28;20025;-65
2022/03/31 03:11:37;;;;;;;0.20;0.00;;;;;;;23.72;50.44;100963.94;5054396;28;20017;-65
2022/03/31 03:14:03;;;;;;;0.50;0.10;;;;;;;23.68;51.06;100958.00;5054438;28;20029;-66
2022/03/31 03:16:29;;;;;;;0.43;0.20;;;;;;;23.71;51.11;100963.09;5054208;28;20033;-65
2022/03/31 03:18:54;;;;;;;0.17;0.10;;;;;;;23.70;50.71;100954.03;5054377;28;20091;-65
2022/03/31 03:21:20;;;;;;;0.17;0.00;;;;;;;23.68;49.71;100963.50;5054181;28;20104;-65
2022/03/31 03:23:48;;;;;;;0.00;0.00;;;;;;;23.70;49.44;100967.75;5049408;28;20068;-65
2022/03/31 03:26:13;;;;;;;0.90;0.22;;;;;;;23.68;49.86;100963.50;5041432;28;20059;-67
2022/03/31 03:28:39;;;;;;;0.52;0.10;;;;;;;23.65;49.80;100964.75;5052882;28;20468;-66
2022/03/31 03:31:05;;;;;;;0.20;0.10;;;;;;;23.67;49.78;100961.78;5052936;28;20013;-65
2022/03/31 03:33:32;;;;;;;0.50;0.10;;;;;;;23.66;50.33;100966.44;5053960;28;20021;-66
2022/03/31 03:35:58;;;;;;;0.10;0.00;;;;;;;23.66;49.13;100962.84;5052625;28;20036;-65
2022/03/31 03:38:23;;;;;;;0.32;0.10;;;;;;;23.67;49.66;100959.91;5053788;28;20029;-65
2022/03/31 03:40:49;;;;;;;0.10;0.10;;;;;;;23.65;49.53;100962.00;5054199;28;20052;-66
2022/03/31 03:43:14;;;;;;;0.17;0.10;;;;;;;23.68;49.81;100963.50;5054088;28;20062;-66
2022/03/31 03:45:40;;;;;;;1.17;0.10;;;;;;;23.65;50.22;100964.75;5053943;28;20037;-67
2022/03/31 03:48:07;;;;;;;1.42;0.17;;;;;;;23.68;48.88;100969.84;5053762;28;20029;-65
2022/03/31 03:50:33;;;;;;;0.03;0.03;;;;;;;23.66;50.06;100971.94;5053908;28;20095;-66
2022/03/31 03:53:01;;;;;;;0.28;0.03;;;;;;;23.68;50.15;100969.84;5053804;28;20479;-66
2022/03/31 03:55:26;;;;;;;0.20;0.00;;;;;;;23.65;49.29;100967.50;5034913;28;20069;-66
2022/03/31 03:57:52;;;;;;;0.30;0.10;;;;;;;23.66;49.13;100971.09;5033679;28;20068;-66
2022/03/31 04:00:18;;;;;;;0.30;0.20;;;;;;;23.65;48.71;100970.22;5033450;28;20032;-65
2022/03/31 04:02:43;;;;;;;0.65;0.20;;;;;;;23.74;48.86;100968.19;5033668;28;20018;-65
2022/03/31 04:05:09;;;;;;;0.47;0.10;;;;;;;23.78;49.82;100968.63;5033513;28;20025;-65
2022/03/31 04:07:34;;;;;;;0.28;0.05;;;;;;;23.82;48.48;100969.88;5033460;28;20029;-65
2022/03/31 04:10:00;;;;;;;0.32;0.03;;;;;;;23.88;47.96;100974.59;5033346;28;20573;-66
2022/03/31 04:12:25;;;;;;;0.15;0.00;;;;;;;23.87;47.86;100978.38;5033379;28;20017;-66
2022/03/31 04:14:50;;;;;;;0.17;0.00;;;;;;;23.92;47.71;100984.09;5033429;28;20026;-67
2022/03/31 04:17:16;;;;;;;0.25;0.08;;;;;;;23.91;47.25;100963.19;5031959;28;20021;-65
2022/03/31 04:19:42;;;;;;;0.40;0.13;;;;;;;23.95;46.85;100964.47;5032897;28;20052;-65
2022/03/31 04:22:08;;;;;;;0.10;0.03;;;;;;;23.99;46.73;100968.47;5033275;28;20029;-66
2022/03/31 04:24:33;;;;;;;0.40;0.00;;;;;;;23.97;46.85;100971.44;5043982;28;20028;-65
2022/03/31 04:26:58;;;;;;;0.28;0.10;;;;;;;23.96;47.12;100971.66;5053152;28;20021;-66
2022/03/31 04:29:26;;;;;;;0.10;0.10;;;;;;;23.99;46.56;100968.47;5053113;28;20021;-65
2022/03/31 04:31:52;;;;;;;0.65;0.00;;;;;;;24.01;46.35;100969.13;5052889;28;20396;-65
2022/03/31 04:34:19;;;;;;;0.80;0.20;;;;;;;24.01;46.45;100975.47;5052830;28;20519;-66
2022/03/31 04:36:45;;;;;;;0.85;0.20;;;;;;;23.99;45.66;100971.22;5052913;28;20025;-65
2022/03/31 04:39:12;;;;;;;0.15;0.00;;;;;;;24.00;45.51;100973.75;5052742;28;20025;-67
2022/03/31 04:41:37;;;;;;;0.05;0.05;;;;;;;24.05;46.36;100970.44;5052726;28;20036;-65
2022/03/31 04:44:03;;;;;;;0.50;0.10;;;;;;;24.05;46.04;100975.06;5052832;28;20017;-66
2022/03/31 04:46:28;;;;;;;0.60;0.30;;;;;;;24.09;45.66;100977.19;5052596;28;20457;-66
2022/03/31 04:48:54;;;;;;;0.25;0.10;;;;;;;24.07;46.04;100981.19;5052748;28;20032;-65
2022/03/31 04:51:19;;;;;;;0.20;0.10;;;;;;;24.10;46.11;100976.13;5052512;28;20051;-67
2022/03/31 04:53:44;;;;;;;0.82;0.30;;;;;;;24.08;45.61;100981.00;5046138;28;20038;-65
2022/03/31 04:56:09;;;;;;;0.10;0.00;;;;;;;24.09;45.72;100981.84;5032649;28;20116;-66
2022/03/31 04:58:36;;;;;;;1.05;0.20;;;;;;;24.08;44.99;100981.00;5032348;28;20056;-66
2022/03/31 05:01:02;;;;;;;1.38;0.10;;;;;;;;;;5032567;28;20051;-65
2022/03/31 05:03:27;;;;;;;0.10;0.10;;;;;;;24.08;45.51;100975.50;5032379;28;20461;-67
2022/03/31 05:05:52;;;;;;;0.32;0.10;;;;;;;24.08;45.08;100981.00;5032431;28;20042;-65
2022/03/31 05:08:17;;;;;;;0.08;0.00;;;;;;;24.11;45.38;100974.25;5032371;28;20423;-65
2022/03/31 05:10:43;;;;;;;0.45;0.15;;;;;;;24.15;45.30;100970.00;5032471;28;20013;-66
2022/03/31 05:13:08;;;;;;;0.47;0.10;;;;;;;24.10;45.46;100962.41;5032426;28;20036;-65
2022/03/31 05:15:33;;;;;;;0.00;0.00;;;;;;;24.11;45.52;100952.25;5032360;28;20021;-66
2022/03/31 05:17:59;;;;;;;0.00;0.00;;;;;;;24.14;45.23;100957.34;5032357;28;20030;-65
2022/03/31 05:20:25;;;;;;;0.00;0.00;;;;;;;24.09;44.35;100957.13;5032124;28;20021;-65
2022/03/31 05:22:50;;;;;;;0.10;0.00;;;;;;;24.11;45.15;100950.38;5031900;28;20053;-66
2022/03/31 05:25:16;;;;;;;0.15;0.00;;;;;;;24.14;44.33;100958.19;5049975;28;20432;-65
2022/03/31 05:27:46;;;;;;;0.10;0.10;;;;;;;24.14;44.64;100951.84;5052036;28;20082;-66
2022/03/31 05:30:14;;;;;;;0.57;0.00;;;;;;;24.10;45.50;100959.66;5052122;28;20017;-65
2022/03/31 05:32:39;;;;;;;0.10;0.10;;;;;;;24.14;44.94;100968.31;5052138;28;20029;-65
2022/03/31 05:35:07;;;;;;;0.75;0.20;;;;;;;24.15;45.18;100959.03;5052321;28;20032;-65
2022/03/31 05:37:33;;;;;;;0.28;0.10;;;;;;;24.17;44.18;100974.25;5051973;28;20025;-65
2022/03/31 05:40:00;;;;;;;0.43;0.10;;;;;;;24.13;44.80;100972.97;5051886;28;20040;-66
2022/03/31 05:42:26;;;;;;;0.47;0.10;;;;;;;24.17;44.49;100968.75;5051911;28;20100;-65
2022/03/31 05:44:51;;;;;;;1.13;0.45;;;;;;;24.18;44.48;100967.69;5052099;28;20102;-65
2022/03/31 05:47:16;;;;;;;0.65;0.10;;;;;;;24.19;44.40;100979.56;5051874;28;20029;-65
2022/03/31 05:49:42;;;;;;;0.40;0.10;;;;;;;24.19;44.26;100977.66;5051872;28;20024;-65
2022/03/31 05:52:07;;;;;;;0.25;0.08;;;;;;;24.18;43.96;100980.59;5052294;28;20021;-66
2022/03/31 05:54:32;;;;;;;0.10;0.00;;;;;;;24.20;44.71;100979.34;5035308;28;20041;-65
2022/03/31 05:56:57;;;;;;;0.88;0.10;;;;;;;24.22;44.75;100984.63;5032067;28;20025;-65
2022/03/31 05:59:23;;;;;;;0.00;0.00;;;;;;;24.21;44.52;100981.03;5031486;28;20827;-65
2022/03/31 06:01:48;;;;;;;0.38;0.10;;;;;;;24.20;44.08;100990.34;5031685;28;20030;-66
2022/03/31 06:04:19;;;;;;;0.00;0.00;;;;;;;24.20;44.80;100982.09;5031815;28;20468;-66
2022/03/31 06:06:45;;;;;;;0.30;0.10;;;;;;;24.21;43.58;100986.53;5032025;28;20025;-65
2022/03/31 06:09:10;;;;;;;0.03;0.00;;;;;;;24.18;44.77;100986.94;5031948;28;20048;-65
2022/03/31 06:11:35;;;;;;;0.35;0.30;;;;;;;24.20;45.12;100981.25;5031788;28;20029;-65
2022/03/31 06:14:00;;;;;;;0.57;0.10;;;;;;;24.25;44.33;100986.97;5031779;28;20025;-66
2022/03/31 06:16:26;;;;;;;1.30;0.10;;;;;;;24.21;44.05;100989.28;5031592;28;20044;-66
2022/03/31 06:18:51;;;;;;;0.47;0.17;;;;;;;24.21;44.83;100989.28;5031850;28;20052;-65
2022/03/31 06:21:16;;;;;;;0.20;0.10;;;;;;;24.27;44.62;100991.19;5031653;28;20033;-66
2022/03/31 06:23:41;;;;;;;0.10;0.10;;;;;;;24.24;44.70;100996.25;5039124;28;20391;-65
2022/03/31 06:26:07;;;;;;;0.30;0.10;;;;;;;24.24;44.56;100994.34;5050378;28;20036;-65
2022/03/31 06:28:33;;;;;;;0.35;0.03;;;;;;;24.20;44.54;100984.84;5051422;28;20033;-66
2022/03/31 06:31:00;;;;;;;0.00;0.00;;;;;;;24.23;44.18;100994.56;5051730;28;20028;-65
2022/03/31 06:33:25;;;;;;;0.88;0.10;;;;;;;24.25;45.22;100987.81;5051425;28;20598;-67
2022/03/31 06:35:50;;;;;;;0.10;0.00;;;;;;;24.27;44.04;100990.34;5053714;28;20033;-65
2022/03/31 06:38:16;;;;;;;0.30;0.05;;;;;;;24.24;44.44;100994.34;5055032;28;20313;-65
2022/03/31 06:41:06;;;;;;;0.40;0.00;;;;;;;24.26;43.95;101005.13;5055006;28;20029;-65
2022/03/31 06:43:26;;;;;;;0.30;0.00;;;;;;;24.26;44.71;101005.97;5054675;28;20052;-65
2022/03/31 06:45:52;;;;;;;0.00;0.00;;;;;;;24.27;44.18;101007.69;5054910;28;20029;-67
2022/03/31 06:48:17;;;;;;;0.40;0.03;;;;;;;24.23;44.92;101011.91;5054807;28;20379;-65
2022/03/31 06:50:42;;;;;;;0.08;0.00;;;;;;;24.23;44.24;101011.91;5054888;28;20013;-65
2022/03/31 06:53:07;;;;;;;0.00;0.00;;;;;;;24.25;44.32;101011.69;5051770;28;20030;-65
2022/03/31 06:55:33;;;;;;;0.28;0.10;;;;;;;24.25;44.57;101008.94;5034736;28;20025;-65
2022/03/31 06:57:58;;;;;;;0.57;0.10;;;;;;;24.25;43.53;101009.78;5034585;28;20493;-67
2022/03/31 07:00:25;;;;;;;0.15;0.10;;;;;;;24.22;44.44;101007.47;5033139;28;20021;-65
2022/03/31 07:02:51;;;;;;;0.25;0.10;;;;;;;24.26;44.27;101008.72;5034839;28;20026;-65
2022/03/31 07:05:16;;;;;;;0.60;0.15;;;;;;;24.26;44.45;101011.47;5034638;28;20483;-65
2022/03/31 07:07:41;;;;;;;2.60;0.30;;;;;;;24.27;44.12;101010.44;5034481;28;20060;-65
2022/03/31 07:10:07;;;;;;;0.25;0.10;;;;;;;24.25;43.67;101012.53;5034597;28;20030;-66
2022/03/31 07:12:37;;;;;;;0.30;0.10;;;;;;;24.26;44.45;101011.47;5034406;28;20021;-65
2022/03/31 07:15:02;;;;;;;0.10;0.10;;;;;;;24.24;44.49;101013.59;5033347;28;20022;-65
2022/03/31 07:17:27;;;;;;;0.08;0.00;;;;;;;24.27;43.78;101015.06;5034322;28;20036;-65
2022/03/31 07:19:53;;;;;;;0.20;0.00;;;;;;;24.27;43.88;101018.66;5032952;28;20080;-64
2022/03/31 07:22:18;;;;;;;0.55;0.13;;;;;;;24.27;44.52;101026.91;5034274;28;20025;-66
2022/03/31 07:24:43;;;;;;;0.35;0.10;;;;;;;24.25;44.90;101023.53;5052639;28;20066;-65
2022/03/31 07:27:09;;;;;;;0.20;0.13;;;;;;;24.29;45.09;101021.25;5054199;28;20056;-65
2022/03/31 07:29:34;;;;;;;0.38;0.10;;;;;;;24.25;44.54;101020.78;5054168;28;20028;-65
2022/03/31 07:31:59;;;;;;;0.08;0.00;;;;;;;24.27;43.56;101015.91;5054281;28;20095;-65
2022/03/31 07:34:25;;;;;;;0.10;0.10;;;;;;;24.25;44.04;101023.53;5053865;28;20075;-66
2022/03/31 07:36:50;;;;;;;0.57;0.10;;;;;;;24.25;44.15;101020.78;5054089;28;20052;-65
2022/03/31 07:39:15;;;;;;;0.45;0.10;;;;;;;24.32;43.56;101019.97;5053911;28;20103;-65
2022/03/31 07:41:40;;;;;;;0.03;0.00;;;;;;;24.28;44.60;101020.34;5053716;28;20095;-65
2022/03/31 07:44:06;;;;;;;0.90;0.10;;;;;;;24.28;44.26;101025.84;5053987;28;20021;-65
2022/03/31 07:46:32;;;;;;;0.52;0.00;;;;;;;24.30;44.46;101022.94;5053862;28;20021;-65
2022/03/31 07:48:58;;;;;;;0.22;0.10;;;;;;;24.31;43.62;101024.63;5053783;28;20028;-64
2022/03/31 07:51:25;;;;;;;0.10;0.00;;;;;;;24.30;44.04;101026.53;5053614;28;20407;-65
2022/03/31 07:53:50;;;;;;;0.28;0.00;;;;;;;24.28;43.84;101030.50;5042449;28;20032;-64
2022/03/31 07:56:16;;;;;;;0.40;0.00;;;;;;;24.29;45.34;101030.31;5033698;28;20112;-65
2022/03/31 07:58:41;;;;;;;0.35;0.00;;;;;;;24.31;43.80;101030.13;5033511;28;20056;-66
2022/03/31 08:01:07;;;;;;;0.30;0.08;;;;;;;24.29;43.57;101035.81;5033568;28;20029;-65
2022/03/31 08:03:32;;;;;;;0.63;0.20;;;;;;;24.28;44.63;101042.34;5033437;28;20461;-66
2022/03/31 08:05:57;;;;;;;0.17;0.10;;;;;;;24.32;44.29;101029.06;5033494;28;20369;-65
2022/03/31 08:08:23;;;;;;;0.20;0.05;;;;;;;24.26;43.05;101041.69;5033303;28;20025;-65
2022/03/31 08:10:49;;;;;;;0.88;0.20;;;;;;;24.24;44.78;101040.22;5033623;28;20021;-65
2022/03/31 08:13:22;;;;;;;0.40;0.10;;;;;;;24.33;44.39;101046.38;5033320;28;20100;-65
2022/03/31 08:15:48;;;;;;;0.50;0.10;;;;;;;24.34;44.50;101042.59;5033314;28;20372;-66
2022/03/31 08:18:13;;;;;;;0.52;0.15;;;;;;;24.32;44.69;101048.28;5033292;28;20025;-64
2022/03/31 08:20:39;;;;;;;0.30;0.00;;;;;;;24.36;42.58;101043.25;5033138;28;20021;-65
2022/03/31 08:23:04;;;;;;;0.75;0.10;;;;;;;24.33;44.52;101054.63;5039742;28;20029;-65
2022/03/31 08:25:30;;;;;;;0.10;0.00;;;;;;;24.35;44.03;101055.28;5052907;28;20029;-65
2022/03/31 08:27:55;;;;;;;0.15;0.00;;;;;;;24.31;43.91;101057.59;5053014;28;20075;-66
2022/03/31 08:30:23;;;;;;;0.10;0.00;;;;;;;24.29;44.14;101055.06;5052836;28;20587;-64
2022/03/31 08:32:48;;;;;;;0.50;0.10;;;;;;;24.30;43.69;101054.00;5053082;28;20082;-65
2022/03/31 08:35:15;;;;;;;0.95;0.15;;;;;;;24.34;44.05;101053.56;5052822;28;20111;-65
2022/03/31 08:37:41;;;;;;;0.03;0.03;;;;;;;24.32;43.77;101059.28;5052703;28;20032;-64
2022/03/31 08:40:11;;;;;;;0.08;0.08;;;;;;;24.32;43.60;101059.28;5052795;28;20477;-66
2022/03/31 08:42:37;;;;;;;0.55;0.15;;;;;;;24.34;44.48;101067.31;5052774;28;20017;-64
2022/03/31 08:45:02;;;;;;;0.30;0.00;;;;;;;24.30;44.00;101061.41;5052924;28;20040;-65
2022/03/31 08:47:28;;;;;;;0.32;0.30;;;;;;;24.25;43.89;101059.25;5052461;28;20035;-65
2022/03/31 08:49:55;;;;;;;1.33;0.10;;;;;;;24.34;44.46;101061.81;5052597;28;20029;-64
2022/03/31 08:52:21;;;;;;;0.20;0.00;;;;;;;24.29;43.38;101060.53;5051626;28;20017;-67
2022/03/31 08:54:46;;;;;;;0.65;0.10;;;;;;;24.30;44.10;101064.13;5033118;28;20405;-64
2022/03/31 08:57:12;;;;;;;0.28;0.10;;;;;;;24.30;43.31;101064.97;5031812;28;20025;-65
2022/03/31 08:59:37;;;;;;;0.20;0.00;;;;;;;24.26;43.88;101060.94;5032335;28;20018;-65
2022/03/31 09:02:02;;;;;;;0.20;0.10;;;;;;;24.30;43.43;101067.72;5032511;28;20043;-65
2022/03/31 09:04:28;;;;;;;0.28;0.10;;;;;;;24.28;43.51;101064.31;5032377;28;20025;-66
2022/03/31 09:07:05;;;;;;;0.95;0.17;;;;;;;24.34;43.60;101075.56;5032837;28;20025;-65
2022/03/31 09:09:31;;;;;;;0.00;0.00;;;;;;;24.34;44.06;101067.31;5032367;28;20020;-65
2022/03/31 09:11:57;;;;;;;0.10;0.00;;;;;;;24.29;44.08;101077.03;5032358;28;20109;-65
2022/03/31 09:14:32;;;;;;;0.30;0.10;;;;;;;24.26;44.51;101077.41;5032223;28;20435;-65
2022/03/31 09:17:10;;;;;;;0.03;0.00;;;;;;;24.33;44.27;101073.88;5032503;28;20021;-67
2022/03/31 09:19:35;;;;;;;0.95;0.30;;;;;;;24.26;43.38;101080.16;5032239;28;20322;-65
2022/03/31 09:22:01;;;;;;;0.35;0.00;;;;;;;24.32;44.08;101088.66;5032227;28;20481;-66
2022/03/31 09:24:28;;;;;;;0.10;0.10;;;;;;;24.33;43.78;101079.34;5052053;28;20032;-66
2022/03/31 09:26:56;;;;;;;0.13;0.10;;;;;;;24.34;43.64;101078.31;5052318;28;20029;-65
2022/03/31 09:29:23;;;;;;;0.30;0.10;;;;;;;24.28;43.28;101075.31;5052022;28;20029;-66
2022/03/31 09:31:51;;;;;;;0.15;0.15;;;;;;;24.33;44.08;101087.59;5051562;28;20021;-65
2022/03/31 09:34:17;;;;;;;0.10;0.00;;;;;;;24.32;44.25;101085.91;5052067;28;20025;-66
2022/03/31 09:36:48;;;;;;;0.30;0.10;;;;;;;24.30;44.18;101080.63;5052119;28;20051;-66
2022/03/31 09:39:13;;;;;;;0.57;0.15;;;;;;;24.35;43.81;101082.75;5051893;28;20017;-65
2022/03/31 09:41:43;;;;;;;0.50;0.43;;;;;;;24.28;42.71;101083.53;5052004;28;20536;-66
2022/03/31 09:44:17;;;;;;;0.57;0.10;;;;;;;24.32;43.18;101091.41;5052041;28;20068;-64
2022/03/31 09:46:43;;;;;;;;;;;;;;;24.31;43.75;101090.56;5052321;28;20021;-66
2022/03/31 09:49:22;;;;;;;0.10;0.00;;;;;;;24.29;43.39;101090.75;5051988;28;19904;-66
2022/03/31 09:51:50;;;;;;;0.47;0.08;;;;;;;24.32;43.24;101085.91;5051992;28;20049;-65
2022/03/31 09:54:17;;;;;;;0.00;0.00;;;;;;;24.33;43.88;101091.19;5050928;28;20092;-65
2022/03/31 09:56:43;;;;;;;0.00;0.00;;;;;;;24.32;43.06;101085.91;5051965;28;20032;-65
2022/03/31 09:59:12;;;;;;;0.00;0.00;;;;;;;24.32;42.61;101086.75;5051712;28;20049;-65
2022/03/31 10:01:38;;;;;;;0.20;0.10;;;;;;;24.33;43.42;101082.09;5051739;28;20108;-66
2022/03/31 10:04:05;;;;;;;0.00;0.00;;;;;;;24.32;42.90;101077.66;5051869;28;20384;-65
2022/03/31 10:06:41;;;;;;;0.45;0.10;;;;;;;24.29;43.48;101082.53;5051687;28;20120;-65
2022/03/31 10:09:09;;;;;;;0.17;0.10;;;;;;;24.34;43.73;101086.56;5051837;28;20021;-66
2022/03/31 10:11:40;;;;;;;0.10;0.10;;;;;;;24.36;43.78;101084.47;5055597;28;20432;-65
2022/03/31 10:14:27;;;;;;;0.47;0.08;;;;;;;24.27;43.63;101079.09;5055948;28;20021;-67
2022/03/31 10:16:58;;;;;;;0.57;0.05;;;;;;;24.32;43.36;101080.41;5055620;28;20063;-65
2022/03/31 10:19:38;;;;;;;0.00;0.00;;;;;;;24.29;42.51;101082.53;5055285;28;20028;-66
2022/03/31 10:22:08;;;;;;;0.10;0.00;;;;;;;24.28;43.44;101086.28;5052396;28;20033;-67
2022/03/31 10:24:44;;;;;;;0.00;0.00;;;;;;;24.29;43.46;101078.94;5035403;28;20112;-65
2022/03/31 10:27:23;;;;;;;1.35;0.13;;;;;;;24.30;43.41;101078.72;5035381;28;20062;-65
2022/03/31 10:29:49;;;;;;;0.10;0.00;;;;;;;24.30;43.01;101081.47;5035274;28;20017;-66
2022/03/31 10:32:16;;;;;;;0.30;0.00;;;;;;;24.27;42.78;101073.63;5035272;28;20028;-65
2022/03/31 10:34:44;;;;;;;0.57;0.20;;;;;;;24.29;43.02;101082.53;5035294;28;20355;-67
2022/03/31 10:37:11;;;;;;;0.25;0.10;;;;;;;24.30;42.93;101084.22;5035112;28;20033;-65
2022/03/31 10:39:37;;;;;;;0.20;0.00;;;;;;;24.30;42.77;101084.22;5035052;28;20473;-65
2022/03/31 10:42:10;;;;;;;0.85;0.10;;;;;;;24.30;43.58;101078.72;5035097;28;20045;-65
2022/03/31 10:44:36;;;;;;;0.00;0.00;;;;;;;24.34;43.78;101090.13;5035101;28;20053;-65
2022/03/31 10:47:06;;;;;;;0.50;0.10;;;;;;;24.29;43.50;101084.44;5035114;28;20681;-67
2022/03/31 10:49:34;;;;;;;0.25;0.03;;;;;;;24.32;43.41;101084.00;5034834;28;20017;-65
2022/03/31 10:52:17;;;;;;;0.63;0.08;;;;;;;24.32;43.41;101085.91;5036566;28;20528;-65
2022/03/31 10:54:42;;;;;;;0.28;0.10;;;;;;;24.31;43.00;101079.56;5055158;28;20035;-66
2022/03/31 10:57:15;;;;;;;0.38;0.30;;;;;;;24.30;42.60;101078.72;5053255;28;20017;-65
2022/03/31 10:59:43;;;;;;;0.40;0.22;;;;;;;24.22;42.51;101087.13;5054508;28;20433;-65
2022/03/31 11:02:13;;;;;;;0.00;0.00;;;;;;;24.30;43.58;101086.97;5054633;28;20021;-65
2022/03/31 11:04:55;;;;;;;0.40;0.10;;;;;;;24.34;43.65;101090.13;5054922;28;20025;-65
2022/03/31 11:07:25;;;;;;;0.25;0.08;;;;;;;24.33;42.99;101087.59;5054456;28;20047;-66
2022/03/31 11:10:07;;;;;;;0.45;0.03;;;;;;;24.25;42.30;101081.22;5054439;28;20115;-65
2022/03/31 11:12:33;;;;;;;0.15;0.10;;;;;;;24.32;42.69;101085.91;5054417;28;20484;-65
2022/03/31 11:15:17;;;;;;;0.15;0.15;;;;;;;24.33;42.75;101082.09;5054475;28;20029;-66
2022/03/31 11:17:43;;;;;;;0.30;0.03;;;;;;;24.28;43.61;101085.44;5037474;28;20028;-65
2022/03/31 11:20:21;;;;;;;0.50;0.10;;;;;;;24.27;43.21;101079.09;5041048;28;20108;-65
2022/03/31 11:22:48;;;;;;;0.10;0.10;;;;;;;24.27;42.45;101084.59;5045629;28;20405;-65
2022/03/31 11:25:15;;;;;;;0.60;0.10;;;;;;;24.33;42.94;101084.84;5045027;28;20063;-65
2022/03/31 11:27:42;;;;;;;0.00;0.00;;;;;;;24.33;43.10;101082.94;5039865;28;20678;-66